createdAt,value
2022-10-26T00:01:07.936Z,101394.16
2022-10-26T00:03:31.568Z,101389.41
2022-10-26T00:05:55.075Z,101389.75
2022-10-26T00:08:20.088Z,101389.09
2022-10-26T00:10:43.625Z,101393.31
2022-10-26T00:13:11.473Z,101390.25
2022-10-26T00:15:35.035Z,101392.66
2022-10-26T00:17:58.634Z,101394.94
2022-10-26T00:20:22.167Z,101400.97
2022-10-26T00:22:45.801Z,101399.25
2022-10-26T00:25:11.226Z,101400.03
2022-10-26T00:27:35.502Z,101409.84
2022-10-26T00:29:59.059Z,101402.97
2022-10-26T00:32:22.605Z,101403.28
2022-10-26T00:34:46.187Z,101411.31
2022-10-26T00:37:09.804Z,101415.97
2022-10-26T00:39:33.327Z,101409.13
2022-10-26T00:41:58.326Z,101415.13
2022-10-26T00:45:02.193Z,101419.81
2022-10-26T00:47:35.792Z,101409.97
2022-10-26T00:50:05.094Z,101420.84
2022-10-26T00:52:30.358Z,101416.16
2022-10-26T00:54:55.176Z,101422.28
2022-10-26T00:57:20.551Z,101417.81
2022-10-26T00:59:44.890Z,101417.13
2022-10-26T01:02:08.780Z,101409.00
2022-10-26T01:04:32.444Z,101411.84
2022-10-26T01:06:56.801Z,101413.84
2022-10-26T01:09:21.742Z,101410.50
2022-10-26T01:11:45.311Z,101407.84
2022-10-26T01:14:12.787Z,101408.78
2022-10-26T01:16:52.001Z,101406.22
2022-10-26T01:20:11.743Z,101403.34
2022-10-26T01:22:38.548Z,101406.69
2022-10-26T01:25:29.218Z,101406.00
2022-10-26T01:27:54.564Z,101398.66
2022-10-26T01:30:22.409Z,101395.38
2022-10-26T01:32:56.535Z,101397.00
2022-10-26T01:35:26.571Z,101397.22
2022-10-26T01:38:01.614Z,101390.63
2022-10-26T01:40:31.187Z,101386.22
2022-10-26T01:42:59.044Z,101386.56
2022-10-26T01:45:25.982Z,101392.41
2022-10-26T01:47:50.749Z,101389.84
2022-10-26T01:50:14.971Z,101390.50
2022-10-26T01:52:38.644Z,101389.56
2022-10-26T01:55:03.764Z,101380.84
2022-10-26T01:57:27.436Z,101385.59
2022-10-26T02:00:08.300Z,101376.84
2022-10-26T02:03:04.518Z,101382.44
2022-10-26T02:05:48.620Z,101384.19
2022-10-26T02:08:34.964Z,101375.19
2022-10-26T02:11:12.053Z,101369.53
2022-10-26T02:13:45.486Z,101372.78
2022-10-26T02:16:21.314Z,101374.78
2022-10-26T02:18:54.374Z,101371.66
2022-10-26T02:21:22.052Z,101363.81
2022-10-26T02:23:48.779Z,101359.69
2022-10-26T02:26:15.145Z,101366.06
2022-10-26T02:28:44.349Z,101360.72
2022-10-26T02:31:09.200Z,101364.38
2022-10-26T02:33:38.379Z,101353.84
2022-10-26T02:36:07.882Z,101355.69
2022-10-26T02:38:34.607Z,101361.97
2022-10-26T02:40:59.570Z,101368.25
2022-10-26T02:43:24.975Z,101370.47
2022-10-26T02:45:53.522Z,101381.53
2022-10-26T02:48:17.739Z,101382.69
2022-10-26T02:50:52.107Z,101373.09
2022-10-26T02:53:26.626Z,101385.88
2022-10-26T02:55:52.180Z,101383.91
2022-10-26T02:58:21.986Z,101383.78
2022-10-26T03:00:47.383Z,101382.44
2022-10-26T03:03:11.275Z,101378.97
2022-10-26T03:05:36.870Z,101384.94
2022-10-26T03:08:01.245Z,101383.38
2022-10-26T03:10:26.595Z,101380.97
2022-10-26T03:12:50.536Z,101383.56
2022-10-26T03:15:15.362Z,101380.81
2022-10-26T03:17:38.918Z,101376.13
2022-10-26T03:20:02.527Z,101372.19
2022-10-26T03:22:26.098Z,101383.16
2022-10-26T03:24:49.700Z,101382.91
2022-10-26T03:27:15.027Z,101385.56
2022-10-26T03:29:38.639Z,101379.19
2022-10-26T03:32:02.147Z,101385.03
2022-10-26T03:34:25.730Z,101385.94
2022-10-26T03:36:49.437Z,101380.91
2022-10-26T03:39:12.999Z,101382.38
2022-10-26T03:41:36.542Z,101383.84
2022-10-26T03:44:01.474Z,101381.38
2022-10-26T03:46:24.988Z,101384.97
2022-10-26T03:48:48.571Z,101386.88
2022-10-26T03:51:12.111Z,101382.41
2022-10-26T03:53:35.671Z,101381.53
2022-10-26T03:55:59.194Z,101390.06
2022-10-26T03:58:22.823Z,101393.25
2022-10-26T04:00:49.011Z,101384.41
2022-10-26T04:03:12.568Z,101388.44
2022-10-26T04:05:36.075Z,101391.78
2022-10-26T04:08:03.082Z,101387.06
2022-10-26T04:10:28.719Z,101386.19
2022-10-26T04:12:52.346Z,101388.78
2022-10-26T04:15:16.267Z,101388.16
2022-10-26T04:17:41.206Z,101384.56
2022-10-26T04:20:05.879Z,101383.63
2022-10-26T04:22:29.557Z,101391.09
2022-10-26T04:24:53.068Z,101389.13
2022-10-26T04:27:16.642Z,101386.19
2022-10-26T04:29:40.144Z,101387.31
2022-10-26T04:32:03.791Z,101394.56
2022-10-26T04:34:28.813Z,101386.28
2022-10-26T04:36:52.366Z,101385.69
2022-10-26T04:39:15.931Z,101382.81
2022-10-26T04:41:39.495Z,101383.19
2022-10-26T04:44:02.994Z,101390.34
2022-10-26T04:46:26.691Z,101394.56
2022-10-26T04:48:50.303Z,101395.47
2022-10-26T04:51:15.492Z,101384.44
2022-10-26T04:53:39.014Z,101387.13
2022-10-26T04:56:03.195Z,101393.75
2022-10-26T04:58:27.150Z,101388.94
2022-10-26T05:00:50.746Z,101394.53
2022-10-26T05:03:14.311Z,101390.28
2022-10-26T05:05:38.539Z,101392.13
2022-10-26T05:08:03.454Z,101393.06
2022-10-26T05:10:28.041Z,101387.97
2022-10-26T05:12:53.247Z,101388.56
2022-10-26T05:15:17.104Z,101387.19
2022-10-26T05:17:40.623Z,101396.47
2022-10-26T05:20:06.146Z,101396.47
2022-10-26T05:22:29.658Z,101395.53
2022-10-26T05:24:54.635Z,101394.94
2022-10-26T05:27:19.403Z,101393.75
2022-10-26T05:29:42.985Z,101396.47
2022-10-26T05:32:06.779Z,101393.06
2022-10-26T05:34:30.352Z,101395.53
2022-10-26T05:36:55.575Z,101398.41
2022-10-26T05:39:19.230Z,101400.38
2022-10-26T05:41:44.139Z,101390.63
2022-10-26T05:44:07.707Z,101401.75
2022-10-26T05:46:31.248Z,101398.56
2022-10-26T05:48:54.807Z,101404.22
2022-10-26T05:51:18.317Z,101407.84
2022-10-26T05:53:41.961Z,101399.50
2022-10-26T05:56:18.379Z,101409.81
2022-10-26T05:58:44.175Z,101410.06
2022-10-26T06:01:20.784Z,101411.91
2022-10-26T06:04:05.019Z,101415.69
2022-10-26T06:06:40.467Z,101412.75
2022-10-26T06:09:04.821Z,101415.34
2022-10-26T06:11:29.303Z,101406.31
2022-10-26T06:14:00.246Z,101413.44
2022-10-26T06:16:37.783Z,101414.56
2022-10-26T06:19:14.070Z,101412.84
2022-10-26T06:21:55.452Z,101415.34
2022-10-26T06:24:28.278Z,101420.34
2022-10-26T06:27:01.227Z,101420.09
2022-10-26T06:29:41.637Z,101428.63
2022-10-26T06:32:05.472Z,101427.94
2022-10-26T06:34:35.411Z,101433.22
2022-10-26T06:37:00.799Z,101433.22
2022-10-26T06:39:27.404Z,101438.38
2022-10-26T06:41:52.722Z,101439.16
2022-10-26T06:44:26.054Z,101436.22
2022-10-26T06:46:56.400Z,101432.28
2022-10-26T06:49:26.566Z,101437.56
2022-10-26T06:51:56.566Z,101435.75
2022-10-26T06:54:26.513Z,101437.28
2022-10-26T06:56:50.650Z,101440.50
2022-10-26T06:59:33.846Z,101435.75
2022-10-26T07:01:57.554Z,101439.97
2022-10-26T07:04:21.917Z,101436.19
2022-10-26T07:06:45.465Z,101442.22
2022-10-26T07:09:09.027Z,101438.50
2022-10-26T07:11:32.578Z,101435.47
2022-10-26T07:13:56.350Z,101438.66
2022-10-26T07:16:23.234Z,101437.25
2022-10-26T07:18:46.747Z,101433.22
2022-10-26T07:21:10.542Z,101445.19
2022-10-26T07:23:34.118Z,101454.41
2022-10-26T07:26:00.627Z,101443.34
2022-10-26T07:28:24.136Z,101446.59
2022-10-26T07:30:47.699Z,101451.41
2022-10-26T07:33:14.776Z,101444.22
2022-10-26T07:35:38.651Z,101441.50
2022-10-26T07:38:02.872Z,101447.72
2022-10-26T07:40:26.937Z,101430.03
2022-10-26T07:42:50.596Z,101438.34
2022-10-26T07:45:14.560Z,101442.00
2022-10-26T07:47:38.048Z,101434.34
2022-10-26T07:50:03.524Z,101438.28
2022-10-26T07:52:27.034Z,101434.03
2022-10-26T07:54:50.605Z,101437.84
2022-10-26T07:57:14.206Z,101435.91
2022-10-26T07:59:37.885Z,101433.38
2022-10-26T08:02:01.811Z,101431.63
2022-10-26T08:04:25.608Z,101435.97
2022-10-26T08:06:50.588Z,101436.81
2022-10-26T08:09:14.165Z,101437.84
2022-10-26T08:11:38.003Z,101443.84
2022-10-26T08:14:01.551Z,101441.94
2022-10-26T08:16:25.319Z,101442.31
2022-10-26T08:18:49.798Z,101437.31
2022-10-26T08:21:21.877Z,101438.75
2022-10-26T08:23:55.927Z,101453.88
2022-10-26T08:26:20.328Z,101449.34
2022-10-26T08:28:43.959Z,101445.16
2022-10-26T08:31:08.470Z,101443.34
2022-10-26T08:33:32.255Z,101448.41
2022-10-26T08:35:57.542Z,101450.25
2022-10-26T08:38:21.122Z,101448.03
2022-10-26T08:40:46.047Z,101437.81
2022-10-26T08:43:18.295Z,101443.00
2022-10-26T08:45:48.034Z,101432.09
2022-10-26T08:48:17.298Z,101440.78
2022-10-26T08:50:47.995Z,101434.06
2022-10-26T08:53:20.505Z,101430.34
2022-10-26T08:55:49.234Z,101437.00
2022-10-26T08:58:18.426Z,101430.50
2022-10-26T09:00:42.484Z,101436.63
2022-10-26T09:03:15.658Z,101428.97
2022-10-26T09:05:53.312Z,101423.44
2022-10-26T09:08:24.755Z,101425.88
2022-10-26T09:11:04.403Z,101430.25
2022-10-26T09:13:40.147Z,101436.59
2022-10-26T09:16:16.121Z,101426.28
2022-10-26T09:18:51.261Z,101435.97
2022-10-26T09:21:40.004Z,101437.63
2022-10-26T09:24:13.253Z,101439.41
2022-10-26T09:26:55.014Z,101443.38
2022-10-26T09:29:18.779Z,101442.81
2022-10-26T09:31:47.036Z,101433.91
2022-10-26T09:34:20.906Z,101440.88
2022-10-26T09:36:44.444Z,101446.34
2022-10-26T09:39:20.620Z,101436.88
2022-10-26T09:41:51.336Z,101435.91
2022-10-26T09:44:27.188Z,101439.78
2022-10-26T09:46:59.406Z,101436.41
2022-10-26T09:49:31.059Z,101443.31
2022-10-26T09:51:54.675Z,101441.53
2022-10-26T09:54:20.209Z,101450.03
2022-10-26T09:56:46.492Z,101449.81
2022-10-26T09:59:13.179Z,101444.06
2022-10-26T10:01:41.400Z,101446.88
2022-10-26T10:04:21.248Z,101440.53
2022-10-26T10:06:46.288Z,101446.41
2022-10-26T10:09:14.088Z,101439.28
2022-10-26T10:11:42.542Z,101454.69
2022-10-26T10:14:11.066Z,101450.25
2022-10-26T10:16:34.730Z,101447.78
2022-10-26T10:19:01.033Z,101444.00
2022-10-26T10:21:37.118Z,101443.88
2022-10-26T10:24:00.715Z,101441.63
2022-10-26T10:26:24.294Z,101447.25
2022-10-26T10:29:00.168Z,101445.38
2022-10-26T10:31:30.989Z,101436.91
2022-10-26T10:33:54.635Z,101448.81
2022-10-26T10:36:22.077Z,101434.19
2022-10-26T10:38:48.158Z,101443.03
2022-10-26T10:41:21.516Z,101441.34
2022-10-26T10:43:48.336Z,101438.44
2022-10-26T10:46:19.484Z,101440.78
2022-10-26T10:48:49.704Z,101436.50
2022-10-26T10:51:13.554Z,101440.50
2022-10-26T10:53:45.816Z,101438.94
2022-10-26T10:56:34.338Z,101432.22
2022-10-26T10:59:28.740Z,101432.41
2022-10-26T11:02:12.143Z,101434.47
2022-10-26T11:04:58.511Z,101430.88
2022-10-26T11:07:25.761Z,101435.16
2022-10-26T11:12:22.576Z,101448.19
2022-10-26T11:14:50.556Z,101448.66
2022-10-26T11:17:21.074Z,101446.78
2022-10-26T11:19:51.336Z,101447.19
2022-10-26T11:22:18.787Z,101448.38
2022-10-26T11:24:48.464Z,101434.75
2022-10-26T11:27:18.016Z,101434.69
2022-10-26T11:29:51.280Z,101424.25
2022-10-26T11:32:22.818Z,101427.75
2022-10-26T11:34:53.656Z,101429.72
2022-10-26T11:37:25.749Z,101425.19
2022-10-26T11:40:03.160Z,101425.41
2022-10-26T11:42:35.127Z,101419.19
2022-10-26T11:45:05.526Z,101419.63
2022-10-26T11:47:38.988Z,101413.31
2022-10-26T11:50:12.186Z,101416.72
2022-10-26T11:52:45.606Z,101418.31
2022-10-26T11:55:12.052Z,101413.47
2022-10-26T11:57:38.201Z,101417.75
2022-10-26T12:00:05.615Z,101418.03
2022-10-26T12:02:30.659Z,101408.69
2022-10-26T12:04:59.312Z,101402.00
2022-10-26T12:07:30.774Z,101403.28
2022-10-26T12:09:55.866Z,101404.50
2022-10-26T12:12:30.708Z,101402.88
2022-10-26T12:15:06.603Z,101395.09
2022-10-26T12:17:37.438Z,101396.78
2022-10-26T12:20:11.909Z,101399.53
2022-10-26T12:22:40.922Z,101387.72
2022-10-26T12:25:20.970Z,101394.06
2022-10-26T12:27:56.487Z,101386.81
2022-10-26T12:30:32.872Z,101388.38
2022-10-26T12:32:57.735Z,101383.06
2022-10-26T12:35:40.761Z,101385.78
2022-10-26T12:39:00.167Z,101400.06
2022-10-26T12:41:26.160Z,101393.91
2022-10-26T12:43:50.115Z,101393.63
2022-10-26T12:46:45.573Z,101397.41
2022-10-26T12:50:00.655Z,101392.56
2022-10-26T12:52:50.228Z,101399.59
2022-10-26T12:55:57.146Z,101407.47
2022-10-26T12:59:06.034Z,101403.38
2022-10-26T13:02:00.557Z,101413.13
2022-10-26T13:05:26.138Z,101403.66
2022-10-26T13:07:50.999Z,101398.13
2022-10-26T13:10:24.467Z,101395.97
2022-10-26T13:12:54.002Z,101387.31
2022-10-26T13:15:25.660Z,101380.69
2022-10-26T13:18:11.099Z,101389.34
2022-10-26T13:20:37.664Z,101388.41
2022-10-26T13:25:32.587Z,101382.19
2022-10-26T13:28:05.675Z,101385.56
2022-10-26T13:30:48.808Z,101394.34
2022-10-26T13:33:27.646Z,101400.22
2022-10-26T13:35:57.359Z,101394.25
2022-10-26T13:38:24.708Z,101388.34
2022-10-26T13:40:49.167Z,101387.84
2022-10-26T13:43:21.796Z,101392.53
2022-10-26T13:45:55.663Z,101406.16
2022-10-26T13:48:28.379Z,101403.78
2022-10-26T13:53:28.859Z,101411.72
2022-10-26T13:55:56.002Z,101408.56
2022-10-26T13:58:29.753Z,101408.69
2022-10-26T14:01:06.233Z,101415.41
2022-10-26T14:03:30.172Z,101415.06
2022-10-26T14:05:54.068Z,101421.72
2022-10-26T14:08:20.853Z,101422.03
2022-10-26T14:10:48.586Z,101418.06
2022-10-26T14:13:18.205Z,101411.94
2022-10-26T14:15:46.303Z,101417.44
2022-10-26T14:18:18.748Z,101416.72
2022-10-26T14:20:42.347Z,101416.03
2022-10-26T14:23:05.834Z,101417.09
2022-10-26T14:25:42.680Z,101415.13
2022-10-26T14:28:27.378Z,101426.44
2022-10-26T14:30:52.640Z,101417.44
2022-10-26T14:33:21.239Z,101416.78
2022-10-26T14:35:44.942Z,101422.28
2022-10-26T14:38:18.514Z,101421.72
2022-10-26T14:40:42.495Z,101420.31
2022-10-26T14:43:07.607Z,101424.03
2022-10-26T14:45:47.969Z,101433.00
2022-10-26T14:48:25.537Z,101435.50
2022-10-26T14:51:03.590Z,101438.06
2022-10-26T14:53:36.075Z,101433.03
2022-10-26T14:56:00.187Z,101439.41
2022-10-26T15:01:27.511Z,101442.91
2022-10-26T15:03:58.346Z,101445.09
2022-10-26T15:06:43.021Z,101440.94
2022-10-26T15:09:07.927Z,101432.56
2022-10-26T15:11:33.659Z,101435.41
2022-10-26T15:13:58.576Z,101433.63
2022-10-26T15:16:24.886Z,101437.28
2022-10-26T15:18:54.031Z,101441.28
2022-10-26T15:21:25.774Z,101442.50
2022-10-26T15:23:49.729Z,101438.59
2022-10-26T15:26:13.951Z,101443.13
2022-10-26T15:28:43.312Z,101441.88
2022-10-26T15:31:26.130Z,101444.94
2022-10-26T15:34:17.623Z,101449.25
2022-10-26T15:36:42.671Z,101445.53
2022-10-26T15:39:06.250Z,101452.94
2022-10-26T15:41:32.989Z,101452.97
2022-10-26T15:43:58.866Z,101455.56
2022-10-26T15:46:23.688Z,101465.16
2022-10-26T15:48:55.540Z,101454.16
2022-10-26T15:51:20.458Z,101456.75
2022-10-26T15:53:44.247Z,101470.72
2022-10-26T15:56:16.939Z,101468.00
2022-10-26T15:58:40.534Z,101470.72
2022-10-26T16:01:04.093Z,101471.16
2022-10-26T16:03:28.375Z,101476.06
2022-10-26T16:05:58.044Z,101477.47
2022-10-26T16:08:23.050Z,101480.75
2022-10-26T16:10:47.410Z,101479.16
2022-10-26T16:13:15.306Z,101477.28
2022-10-26T16:15:39.097Z,101479.66
2022-10-26T16:18:02.662Z,101475.78
2022-10-26T16:20:27.671Z,101472.78
2022-10-26T16:22:53.158Z,101475.91
2022-10-26T16:25:21.439Z,101480.88
2022-10-26T16:27:45.315Z,101491.81
2022-10-26T16:30:10.420Z,101488.53
2022-10-26T16:32:34.021Z,101489.50
2022-10-26T16:34:57.547Z,101487.81
2022-10-26T16:37:21.078Z,101490.06
2022-10-26T16:39:44.640Z,101492.91
2022-10-26T16:42:09.743Z,101488.88
2022-10-26T16:44:33.264Z,101493.56
2022-10-26T16:46:56.844Z,101488.69
2022-10-26T16:49:20.354Z,101504.06
2022-10-26T16:51:43.947Z,101504.91
2022-10-26T16:54:07.771Z,101505.22
2022-10-26T16:56:32.147Z,101510.31
2022-10-26T16:58:57.662Z,101515.16
2022-10-26T17:01:22.570Z,101519.97
2022-10-26T17:03:46.333Z,101518.97
2022-10-26T17:06:09.912Z,101512.34
2022-10-26T17:08:36.049Z,101514.91
2022-10-26T17:11:05.987Z,101516.28
2022-10-26T17:13:29.565Z,101514.56
2022-10-26T17:15:54.499Z,101528.56
2022-10-26T17:18:18.047Z,101531.50
2022-10-26T17:20:42.060Z,101530.97
2022-10-26T17:23:05.850Z,101533.44
2022-10-26T17:25:29.374Z,101542.78
2022-10-26T17:27:53.167Z,101542.91
2022-10-26T17:30:16.956Z,101545.03
2022-10-26T17:32:41.951Z,101547.47
2022-10-26T17:35:06.382Z,101546.94
2022-10-26T17:39:58.483Z,101555.72
2022-10-26T17:42:22.060Z,101561.00
2022-10-26T17:44:45.616Z,101557.19
2022-10-26T17:47:09.906Z,101558.16
2022-10-26T17:49:36.271Z,101555.72
2022-10-26T17:52:00.006Z,101558.31
2022-10-26T17:54:23.515Z,101568.84
2022-10-26T17:56:48.021Z,101560.72
2022-10-26T17:59:13.904Z,101567.13
2022-10-26T18:01:37.506Z,101560.00
2022-10-26T18:04:01.050Z,101566.41
2022-10-26T18:06:26.566Z,101570.09
2022-10-26T18:08:50.203Z,101577.09
2022-10-26T18:11:19.127Z,101576.94
2022-10-26T18:13:45.335Z,101585.19
2022-10-26T18:16:12.137Z,101584.06
2022-10-26T18:18:37.066Z,101592.19
2022-10-26T18:21:04.717Z,101592.72
2022-10-26T18:23:29.667Z,101594.97
2022-10-26T18:26:04.635Z,101609.53
2022-10-26T18:28:30.459Z,101609.25
2022-10-26T18:30:53.988Z,101612.84
2022-10-26T18:33:19.786Z,101616.28
2022-10-26T18:35:43.367Z,101620.66
2022-10-26T18:38:06.924Z,101615.53
2022-10-26T18:40:31.860Z,101629.66
2022-10-26T18:42:55.444Z,101628.00
2022-10-26T18:45:19.038Z,101627.19
2022-10-26T18:47:42.700Z,101625.84
2022-10-26T18:50:07.435Z,101618.97
2022-10-26T18:52:30.986Z,101623.50
2022-10-26T18:54:54.933Z,101623.38
2022-10-26T18:57:21.483Z,101622.91
2022-10-26T18:59:44.992Z,101623.78
2022-10-26T19:02:11.382Z,101622.06
2022-10-26T19:04:34.949Z,101625.16
2022-10-26T19:06:58.536Z,101630.72
2022-10-26T19:09:22.130Z,101632.47
2022-10-26T19:11:46.364Z,101632.47
2022-10-26T19:14:12.407Z,101639.97
2022-10-26T19:16:46.377Z,101640.47
2022-10-26T19:19:10.954Z,101634.97
2022-10-26T19:21:34.856Z,101641.47
2022-10-26T19:24:01.323Z,101643.63
2022-10-26T19:26:31.778Z,101648.41
2022-10-26T19:29:02.175Z,101649.91
2022-10-26T19:31:28.552Z,101654.94
2022-10-26T19:33:52.323Z,101662.44
2022-10-26T19:36:15.859Z,101655.66
2022-10-26T19:38:39.829Z,101657.66
2022-10-26T19:41:06.055Z,101656.53
2022-10-26T19:43:32.027Z,101664.16
2022-10-26T19:45:55.608Z,101666.03
2022-10-26T19:48:20.619Z,101673.25
2022-10-26T19:50:49.954Z,101676.41
2022-10-26T19:53:17.334Z,101680.47
2022-10-26T19:55:44.416Z,101676.91
2022-10-26T19:58:08.011Z,101679.34
2022-10-26T20:00:35.732Z,101680.94
2022-10-26T20:02:59.396Z,101679.22
2022-10-26T20:05:24.360Z,101685.22
2022-10-26T20:07:47.915Z,101681.16
2022-10-26T20:10:11.658Z,101689.47
2022-10-26T20:12:35.299Z,101688.63
2022-10-26T20:14:58.822Z,101691.50
2022-10-26T20:17:25.070Z,101692.47
2022-10-26T20:19:51.120Z,101700.28
2022-10-26T20:22:16.129Z,101694.25
2022-10-26T20:24:39.631Z,101705.03
2022-10-26T20:27:03.247Z,101699.25
2022-10-26T20:29:26.734Z,101696.69
2022-10-26T20:31:55.189Z,101712.47
2022-10-26T20:34:19.602Z,101713.91
2022-10-26T20:36:43.223Z,101722.84
2022-10-26T20:39:09.274Z,101723.41
2022-10-26T20:41:33.482Z,101722.13
2022-10-26T20:43:58.178Z,101727.75
2022-10-26T20:46:25.047Z,101725.28
2022-10-26T20:48:49.479Z,101729.94
2022-10-26T20:51:22.348Z,101726.59
2022-10-26T20:53:54.162Z,101730.63
2022-10-26T20:56:25.093Z,101734.72
2022-10-26T20:58:53.082Z,101740.44
2022-10-26T21:01:24.825Z,101742.38
2022-10-26T21:03:48.456Z,101749.50
2022-10-26T21:06:13.206Z,101747.88
2022-10-26T21:08:36.826Z,101745.53
2022-10-26T21:11:01.279Z,101752.00
2022-10-26T21:13:27.592Z,101755.88
2022-10-26T21:15:51.130Z,101753.63
2022-10-26T21:18:14.787Z,101760.09
2022-10-26T21:20:38.354Z,101749.53
2022-10-26T21:23:01.974Z,101742.22
2022-10-26T21:25:25.564Z,101745.97
2022-10-26T21:27:49.350Z,101742.84
2022-10-26T21:30:15.037Z,101748.47
2022-10-26T21:32:38.855Z,101758.59
2022-10-26T21:35:02.374Z,101756.44
2022-10-26T21:37:27.398Z,101765.38
2022-10-26T21:39:50.899Z,101754.06
2022-10-26T21:42:14.471Z,101761.41
2022-10-26T21:44:41.284Z,101766.22
2022-10-26T21:47:06.986Z,101778.81
2022-10-26T21:49:30.615Z,101783.75
2022-10-26T21:51:54.239Z,101782.25
2022-10-26T21:54:17.748Z,101784.94
2022-10-26T21:56:41.329Z,101780.31
2022-10-26T21:59:05.882Z,101774.06
2022-10-26T22:01:29.674Z,101774.78
2022-10-26T22:03:54.699Z,101783.13
2022-10-26T22:08:49.212Z,101786.91
2022-10-26T22:11:15.935Z,101785.50
2022-10-26T22:13:39.847Z,101776.59
2022-10-26T22:16:06.410Z,101777.00
2022-10-26T22:18:29.992Z,101784.09
2022-10-26T22:20:59.048Z,101782.63
2022-10-26T22:23:22.600Z,101775.03
2022-10-26T22:25:46.171Z,101788.50
2022-10-26T22:28:09.723Z,101783.41
2022-10-26T22:30:33.261Z,101785.56
2022-10-26T22:32:56.829Z,101780.31
2022-10-26T22:35:35.599Z,101780.59
2022-10-26T22:38:00.631Z,101791.66
2022-10-26T22:40:24.150Z,101788.13
2022-10-26T22:42:47.931Z,101790.16
2022-10-26T22:45:12.062Z,101788.72
2022-10-26T22:47:35.671Z,101782.84
2022-10-26T22:49:59.219Z,101788.72
2022-10-26T22:52:23.070Z,101782.69
2022-10-26T22:54:48.071Z,101794.41
2022-10-26T22:57:11.627Z,101780.97
2022-10-26T22:59:35.165Z,101788.06
2022-10-26T23:01:58.820Z,101788.47
2022-10-26T23:04:22.426Z,101799.63
2022-10-26T23:06:46.109Z,101794.81
2022-10-26T23:09:09.877Z,101797.41
2022-10-26T23:11:34.965Z,101797.81
2022-10-26T23:14:00.652Z,101800.19
2022-10-26T23:16:24.635Z,101805.69
2022-10-26T23:18:48.866Z,101808.16
2022-10-26T23:21:13.653Z,101820.91
2022-10-26T23:23:37.897Z,101829.28
2022-10-26T23:26:02.263Z,101826.41
2022-10-26T23:28:27.160Z,101829.09
2022-10-26T23:30:50.738Z,101831.88
2022-10-26T23:33:14.348Z,101830.75
2022-10-26T23:35:37.892Z,101828.16
2022-10-26T23:38:01.630Z,101834.00
2022-10-26T23:40:25.350Z,101830.22
2022-10-26T23:42:49.221Z,101835.16
2022-10-26T23:45:14.598Z,101829.13
2022-10-26T23:47:38.091Z,101834.50
2022-10-26T23:50:01.702Z,101833.91
2022-10-26T23:52:25.309Z,101835.25
2022-10-26T23:57:17.270Z,101840.06
2022-10-26T23:59:40.842Z,101837.47
